Time;durP1;ratioP1;P1;durP2;ratioP2;P2;SDS_P1;SDS_P2;PMS_P1;PMS_P2;Temp;Humidity;BMP_temperature;BMP_pressure;BME280_temperature;BME280_humidity;BME280_pressure;Samples;Min_cycle;Max_cycle;Signal;HPM_P1;HPM_P2
2023/10/01 00:00:36;;;;;;;;;36.67;32.00;;;;;17.10;100.00;101924.97;5024680;28;45633;-83
2023/10/01 00:03:04;;;;;;;;;37.00;31.67;;;;;17.17;100.00;101947.13;5022394;28;47295;-81
2023/10/01 00:05:29;;;;;;;;;39.33;33.00;;;;;16.98;100.00;101935.09;5013869;28;46514;-82
2023/10/01 00:07:55;;;;;;;;;30.33;24.00;;;;;16.97;100.00;101947.22;5023191;28;45455;-83
2023/10/01 00:10:22;;;;;;;;;29.67;23.67;;;;;16.96;100.00;101953.00;5021563;28;45879;-83
2023/10/01 00:12:50;;;;;;;;;33.67;30.00;;;;;16.87;100.00;101952.41;5032811;28;47471;-83
2023/10/01 00:15:18;;;;;;;;;35.67;27.33;;;;;16.81;100.00;101956.91;5017508;28;45901;-79
2023/10/01 00:17:46;;;;;;;;;37.00;32.33;;;;;16.53;100.00;101924.00;5022488;28;45698;-81
2023/10/01 00:20:18;;;;;;;;;37.67;32.67;;;;;16.68;100.00;101954.19;5021633;28;44796;-80
2023/10/01 00:22:45;;;;;;;;;26.67;25.00;;;;;16.64;100.00;101959.28;5020959;28;45953;-79
2023/10/01 00:25:10;;;;;;;;;30.67;27.33;;;;;16.54;100.00;101951.47;5014565;28;45424;-81
2023/10/01 00:27:37;;;;;;;;;36.33;29.67;;;;;16.48;100.00;101952.34;5023072;28;45449;-84
2023/10/01 00:30:06;;;;;;;;;29.67;25.33;;;;;16.45;100.00;101949.16;5026411;28;45389;-82
2023/10/01 00:32:32;;;;;;;;;27.33;22.33;;;;;16.36;100.00;101943.00;5018659;28;45570;-83
2023/10/01 00:34:57;;;;;;;;;30.33;25.67;;;;;16.27;100.00;101936.84;5028944;28;45119;-83
2023/10/01 00:37:23;;;;;;;;;30.67;26.33;;;;;16.19;100.00;101920.50;5042163;28;45420;-82
2023/10/01 00:39:54;;;;;;;;;39.33;32.33;;;;;16.32;100.00;101950.91;5009753;28;47061;-81
2023/10/01 00:42:24;;;;;;;;;37.00;29.67;;;;;16.24;100.00;101948.34;5013914;28;46212;-80
2023/10/01 00:44:49;;;;;;;;;30.00;27.33;;;;;16.14;100.00;101937.75;5020747;28;45466;-84
2023/10/01 00:47:16;;;;;;;;;32.00;25.33;;;;;16.21;100.00;101948.78;5018032;28;45706;-84
2023/10/01 00:49:46;;;;;;;;;27.33;23.33;;;;;16.12;100.00;101928.81;5034620;28;45639;-82
2023/10/01 00:52:18;;;;;;;;;31.00;28.33;;;;;16.15;100.00;101941.38;5021706;28;45871;-81
2023/10/01 00:54:47;;;;;;;;;26.33;21.00;;;;;16.09;100.00;101929.22;5024837;28;45426;-79
2023/10/01 00:57:15;;;;;;;;;28.33;25.00;;;;;16.11;100.00;101926.25;5021069;28;45962;-82
2023/10/01 00:59:44;;;;;;;;;25.67;25.00;;;;;16.09;100.00;101933.94;5027395;28;45867;-83
2023/10/01 01:02:15;;;;;;;;;31.33;23.67;;;;;15.97;100.00;101911.59;5026968;28;45425;-84
2023/10/01 01:04:45;;;;;;;;;20.33;20.33;;;;;16.05;100.00;101934.38;5023829;28;45577;-83
2023/10/01 01:07:15;;;;;;;;;22.67;21.00;;;;;15.92;100.00;101912.25;5028753;28;45690;-82
2023/10/01 01:09:42;;;;;;;;;24.00;20.00;;;;;15.94;100.00;101918.41;5018631;28;46055;-81
2023/10/01 01:12:08;;;;;;;;;13.67;11.00;;;;;15.97;100.00;101930.97;5022358;28;45862;-80
2023/10/01 01:14:35;;;;;;;;;22.33;22.33;;;;;15.72;100.00;101892.91;5024099;28;45277;-81
2023/10/01 01:17:01;;;;;;;;;29.33;24.33;;;;;15.88;100.00;101916.50;5021802;28;45414;-81
2023/10/01 01:19:26;;;;;;;;;23.33;22.00;;;;;15.87;100.00;101925.91;5029226;28;46135;-82
2023/10/01 01:21:52;;;;;;;;;25.67;21.67;;;;;15.83;100.00;101917.16;5021605;28;48292;-78
2023/10/01 01:24:18;;;;;;;;;24.67;23.00;;;;;15.71;100.00;101903.09;5026411;28;46020;-81
2023/10/01 01:26:51;;;;;;;;;28.33;24.33;;;;;15.83;100.00;101919.09;5021741;28;45856;-79
2023/10/01 01:29:29;;;;;;;;;26.33;23.67;;;;;15.78;100.00;101907.81;5026303;28;45890;-80
2023/10/01 01:32:16;;;;;;;;;17.00;14.67;;;;;15.78;100.00;101905.03;5016638;28;46904;-79
2023/10/01 01:34:44;;;;;;;;;27.33;24.00;;;;;15.76;100.00;101901.63;5028320;28;45495;-80
2023/10/01 01:37:30;;;;;;;;;25.67;18.33;;;;;15.65;100.00;101890.13;5015607;28;45730;-79
2023/10/01 01:39:57;;;;;;;;;25.00;18.33;;;;;15.67;100.00;101892.69;5018940;28;47200;-84
2023/10/01 01:42:24;;;;;;;;;29.67;24.00;;;;;15.66;100.00;101886.31;5020075;28;45426;-83
2023/10/01 01:45:38;;;;;;;;;21.33;15.67;;;;;15.65;100.00;101892.91;5015383;28;45459;-83
2023/10/01 01:47:38;;;;;;;;;29.00;21.33;;;;;15.63;100.00;101885.88;5017303;28;45520;-80
2023/10/01 01:50:21;;;;;;;;;27.33;21.33;;;;;15.69;100.00;101896.09;5018970;28;46072;-81
2023/10/01 01:52:49;;;;;;;;;28.00;22.00;;;;;15.62;100.00;101879.50;5018561;28;45583;-82
2023/10/01 01:55:25;;;;;;;;;29.00;21.33;;;;;15.69;100.00;101885.88;5045607;28;45112;-82
2023/10/01 01:58:10;;;;;;;;;27.33;26.33;;;;;15.64;100.00;101882.94;5019906;28;45484;-82
2023/10/01 02:00:47;;;;;;;;;26.67;23.00;;;;;15.64;100.00;101893.13;5020648;28;45622;-81
2023/10/01 02:03:14;;;;;;;;;22.00;18.00;;;;;15.66;100.00;101902.91;5018537;28;45518;-80
2023/10/01 02:05:41;;;;;;;;;21.67;20.33;;;;;15.57;100.00;101881.22;5011594;28;45574;-80
2023/10/01 02:08:23;;;;;;;;;23.00;19.67;;;;;15.67;100.00;101899.09;5031433;28;45725;-81
2023/10/01 02:10:53;;;;;;;;;24.33;20.00;;;;;15.56;100.00;101880.38;5031784;28;45944;-80
2023/10/01 02:13:21;;;;;;;;;26.33;22.00;;;;;15.56;100.00;101880.38;5025854;28;46159;-80
2023/10/01 02:15:46;;;;;;;;;29.00;23.33;;;;;15.65;100.00;101897.59;5013459;28;45583;-81
2023/10/01 02:18:16;;;;;;;;;23.00;20.00;;;;;15.59;100.00;101887.41;5021697;28;45846;-83
2023/10/01 02:20:51;;;;;;;;;28.67;24.33;;;;;15.61;100.00;101894.38;5019664;28;45619;-82
2023/10/01 02:23:25;;;;;;;;;27.67;24.67;;;;;15.50;100.00;101875.69;5025533;28;45376;-82
2023/10/01 02:25:51;;;;;;;;;25.00;21.00;;;;;15.60;100.00;101891.84;5023711;28;45340;-80
2023/10/01 02:28:17;;;;;;;;;25.33;19.67;;;;;15.64;100.00;101899.53;5029145;28;45677;-78
2023/10/01 02:30:44;;;;;;;;;24.33;23.33;;;;;15.50;100.00;101875.69;5017589;28;45570;-79
2023/10/01 02:33:16;;;;;;;;;25.67;20.33;;;;;15.50;100.00;101884.00;5013013;28;45821;-82
2023/10/01 02:35:41;;;;;;;;;31.67;27.00;;;;;15.57;100.00;101903.31;5019566;28;45582;-82
2023/10/01 02:38:36;;;;;;;;;29.67;23.67;;;;;15.54;100.00;101901.88;5018967;28;45725;-79
2023/10/01 02:41:01;;;;;;;;;27.33;22.00;;;;;15.52;100.00;101895.69;5013123;28;45483;-81
2023/10/01 02:43:34;;;;;;;;;27.00;23.33;;;;;15.40;100.00;101892.69;5021580;28;45731;-83
2023/10/01 02:46:07;;;;;;;;;27.33;22.00;;;;;15.44;100.00;101898.69;5030298;28;45758;-81
2023/10/01 02:48:40;;;;;;;;;17.00;14.67;;;;;15.32;100.00;101885.47;5026049;28;45536;-79
2023/10/01 02:51:15;;;;;;;;;24.67;22.33;;;;;15.42;100.00;101898.03;5030839;28;47346;-80
2023/10/01 02:59:15;;;;;;;;;22.33;20.00;;;;;15.17;100.00;101859.97;5017548;28;45466;-82
2023/10/01 03:01:47;;;;;;;;;30.00;22.00;;;;;15.31;100.00;101885.69;5017870;28;45771;-81
2023/10/01 03:04:17;;;;;;;;;16.00;12.67;;;;;15.27;100.00;101888.03;5034647;28;46298;-79
2023/10/01 03:06:55;;;;;;;;;18.00;16.67;;;;;15.17;100.00;101874.63;5016915;28;45888;-81
2023/10/01 03:09:31;;;;;;;;;21.33;18.00;;;;;15.25;100.00;101883.78;5018316;28;45282;-81
2023/10/01 03:15:35;;;;;;;;;20.67;16.00;;;;;15.17;100.00;101885.69;5021756;28;45524;-81
2023/10/01 03:17:38;;;;;;;;;27.00;20.00;;;;;15.14;100.00;101882.50;5011646;28;45836;-81
2023/10/01 03:22:53;;;;;;;;;23.00;21.00;;;;;14.95;100.00;101868.44;5033024;28;45754;-81
2023/10/01 03:25:28;;;;;;;;;23.00;20.00;;;;;15.03;100.00;101875.72;5022129;28;45438;-82
2023/10/01 03:28:01;;;;;;;;;25.00;20.33;;;;;15.02;100.00;101886.97;5021306;28;44875;-83
2023/10/01 03:30:32;;;;;;;;;20.67;19.67;;;;;15.04;100.00;101893.13;5020007;28;45736;-81
2023/10/01 03:33:07;;;;;;;;;20.00;17.67;;;;;15.02;100.00;101885.03;5023450;28;45755;-83
2023/10/01 03:35:34;;;;;;;;;24.67;20.00;;;;;14.93;100.00;101858.69;5021842;28;47705;-81
2023/10/01 03:38:10;;;;;;;;;18.67;16.33;;;;;14.86;100.00;101858.66;5024509;28;45268;-81
2023/10/01 03:40:57;;;;;;;;;17.33;15.67;;;;;14.82;100.00;101866.53;5020143;28;45917;-81
2023/10/01 03:43:31;;;;;;;;;24.00;17.67;;;;;14.80;100.00;101867.78;5016219;28;45371;-81
2023/10/01 03:46:06;;;;;;;;;10.67;10.67;;;;;14.79;100.00;101866.09;5033585;28;47250;-82
2023/10/01 03:48:57;;;;;;;;;13.33;11.67;;;;;14.77;100.00;101870.97;5025951;28;45682;-83
2023/10/01 03:51:28;;;;;;;;;19.67;19.00;;;;;14.74;100.00;101863.13;5018337;28;45165;-83
2023/10/01 03:53:59;;;;;;;;;21.00;20.33;;;;;14.73;100.00;101864.16;5020148;28;45806;-82
2023/10/01 03:56:30;;;;;;;;;19.67;17.67;;;;;14.78;100.00;101875.44;5025320;28;46493;-83
2023/10/01 03:58:56;;;;;;;;;25.67;18.00;;;;;14.76;100.00;101870.13;5020259;28;45572;-84
2023/10/01 04:01:33;;;;;;;;;27.67;21.00;;;;;14.80;100.00;101871.41;5023484;28;45685;-84
2023/10/01 04:04:03;;;;;;;;;22.33;16.67;;;;;14.79;100.00;101868.84;5038409;28;46632;-83
2023/10/01 04:06:30;;;;;;;;;22.67;16.67;;;;;14.77;100.00;101868.22;5033542;28;47001;-83
2023/10/01 04:08:55;;;;;;;;;16.67;15.67;;;;;14.54;100.00;101836.28;5013101;28;46405;-81
2023/10/01 04:11:41;;;;;;;;;18.33;16.33;;;;;14.73;100.00;101867.78;5030269;28;45980;-80
2023/10/01 04:14:09;;;;;;;;;18.33;16.67;;;;;14.69;100.00;101863.75;5024051;28;45667;-82
2023/10/01 04:16:35;;;;;;;;;22.00;16.67;;;;;14.40;100.00;101824.34;5026709;28;45305;-80
2023/10/01 04:19:10;;;;;;;;;23.33;18.67;;;;;14.65;100.00;101863.31;5029358;28;45824;-80
2023/10/01 04:21:36;;;;;;;;;19.00;13.67;;;;;14.55;100.00;101851.78;5037422;28;45644;-78
2023/10/01 04:24:02;;;;;;;;;22.67;17.67;;;;;14.51;100.00;101852.41;5020923;28;45981;-82
2023/10/01 04:26:30;;;;;;;;;14.67;14.67;;;;;14.50;100.00;101865.34;5021537;28;48370;-82
2023/10/01 04:28:59;;;;;;;;;24.33;18.33;;;;;14.50;100.00;101864.50;5024467;28;46086;-83
2023/10/01 04:34:29;;;;;;;;;16.67;16.00;;;;;14.45;100.00;101863.22;4999699;28;45842;-83
2023/10/01 04:36:54;;;;;;;;;24.00;17.00;;;;;14.51;100.00;101877.25;4996187;28;45991;-84
2023/10/01 04:39:20;;;;;;;;;17.00;17.00;;;;;14.49;100.00;101874.72;5006675;28;45641;-81
2023/10/01 04:41:46;;;;;;;;;17.33;15.00;;;;;14.46;100.00;101872.34;5020394;28;45962;-80
2023/10/01 04:44:13;;;;;;;;;19.67;17.00;;;;;14.43;100.00;101867.22;5039083;28;45623;-83
2023/10/01 04:46:40;;;;;;;;;12.67;12.33;;;;;14.43;100.00;101872.75;5025028;28;46809;-80
2023/10/01 04:49:31;;;;;;;;;25.00;19.00;;;;;14.47;100.00;101871.28;5028479;28;45464;-81
2023/10/01 04:52:00;;;;;;;;;24.00;12.00;;;;;14.39;100.00;101852.16;5019301;28;45323;-80
2023/10/01 04:55:08;;;;;;;;;19.67;17.33;;;;;14.53;100.00;101870.44;5019573;28;46038;-83
2023/10/01 04:57:36;;;;;;;;;22.67;18.67;;;;;14.52;100.00;101877.06;5015816;28;47658;-84
2023/10/01 05:00:10;;;;;;;;;24.33;20.67;;;;;14.29;100.00;101842.34;5038605;28;45542;-83
2023/10/01 05:02:36;;;;;;;;;19.67;17.00;;;;;14.31;100.00;101847.66;5017956;28;45710;-79
2023/10/01 05:05:10;;;;;;;;;28.33;20.00;;;;;14.40;100.00;101867.66;5019282;28;45540;-81
2023/10/01 05:07:36;;;;;;;;;22.33;17.00;;;;;14.42;100.00;101873.84;5015621;28;45576;-81
2023/10/01 05:10:04;;;;;;;;;19.33;16.67;;;;;14.46;100.00;101883.38;5020567;28;45441;-79
2023/10/01 05:12:31;;;;;;;;;25.67;18.33;;;;;14.45;100.00;101888.06;5024831;28;45822;-80
2023/10/01 05:14:59;;;;;;;;;23.67;15.00;;;;;14.35;100.00;101873.78;5017034;28;45891;-84
2023/10/01 05:17:30;;;;;;;;;19.33;17.00;;;;;14.42;100.00;101884.88;5012305;28;45758;-80
2023/10/01 05:19:57;;;;;;;;;21.33;15.67;;;;;14.43;100.00;101890.19;5030674;28;45115;-79
2023/10/01 05:22:23;;;;;;;;;21.67;19.67;;;;;14.26;100.00;101864.84;5022044;28;45469;-81
2023/10/01 05:24:49;;;;;;;;;21.00;16.00;;;;;14.38;100.00;101881.66;5019936;28;45389;-79
2023/10/01 05:27:22;;;;;;;;;25.33;20.00;;;;;14.30;100.00;101868.88;5021054;28;46696;-81
2023/10/01 05:29:48;;;;;;;;;23.00;19.00;;;;;14.40;100.00;101893.34;5015292;28;45909;-79
2023/10/01 05:32:18;;;;;;;;;39.67;31.67;;;;;14.40;100.00;101893.34;5032378;28;45688;-80
2023/10/01 05:34:46;;;;;;;;;86.50;68.00;;;;;14.36;100.00;101892.06;5024456;28;46623;-83
2023/10/01 05:37:16;;;;;;;;;25.00;20.00;;;;;14.39;100.00;101893.56;5015874;28;47356;-81
2023/10/01 05:39:57;;;;;;;;;23.00;19.33;;;;;14.37;100.00;101890.13;5015812;28;45710;-79
2023/10/01 05:42:28;;;;;;;;;23.00;17.67;;;;;14.41;100.00;101895.03;5014578;28;45533;-80
2023/10/01 05:44:59;;;;;;;;;17.00;16.00;;;;;14.31;100.00;101883.53;5021764;28;46094;-82
2023/10/01 05:47:50;;;;;;;;;21.00;17.67;;;;;14.28;100.00;101878.41;5020630;28;45719;-82
2023/10/01 05:50:18;;;;;;;;;20.67;16.67;;;;;14.43;100.00;101897.59;5017732;28;45655;-83
2023/10/01 05:52:45;;;;;;;;;23.67;20.00;;;;;14.22;100.00;101869.09;5013722;28;45681;-83
2023/10/01 05:55:12;;;;;;;;;23.00;18.00;;;;;14.42;100.00;101907.78;5017796;28;46184;-83
2023/10/01 05:57:41;;;;;;;;;19.67;13.67;;;;;14.35;100.00;101898.63;5029874;28;46233;-82
2023/10/01 06:00:17;;;;;;;;;21.00;17.67;;;;;14.32;100.00;101884.41;5016356;28;45629;-85
2023/10/01 06:03:00;;;;;;;;;23.00;19.33;;;;;14.50;100.00;101901.22;5016654;28;45762;-84
2023/10/01 06:05:33;;;;;;;;;16.67;14.00;;;;;14.46;100.00;101895.28;5021946;28;45439;-86
2023/10/01 06:08:12;;;;;;;;;15.67;15.33;;;;;14.57;100.00;101904.88;5015325;28;46823;-85
2023/10/01 06:10:59;;;;;;;;;24.33;18.33;;;;;14.55;100.00;101901.47;5013514;28;46053;-83
2023/10/01 06:13:28;;;;;;;;;21.67;16.33;;;;;14.58;100.00;101905.72;5021165;28;45821;-84
2023/10/01 06:16:15;;;;;;;;;22.33;17.67;;;;;14.61;100.00;101899.81;5017621;28;46298;-82
2023/10/01 06:18:49;;;;;;;;;18.00;16.33;;;;;14.58;100.00;101898.31;5013910;28;45447;-82
2023/10/01 06:21:17;;;;;;;;;25.67;22.00;;;;;14.57;100.00;101891.06;5012186;28;45226;-81
2023/10/01 06:23:52;;;;;;;;;19.00;16.33;;;;;14.65;100.00;101910.25;5016041;28;45888;-82
2023/10/01 06:26:23;;;;;;;;;24.00;18.33;;;;;14.69;100.00;101913.44;5023023;28;46775;-83
2023/10/01 06:28:56;;;;;;;;;26.67;19.67;;;;;14.73;100.00;101905.59;5018740;28;45999;-82
2023/10/01 06:31:22;;;;;;;;;24.00;19.00;;;;;14.77;100.00;101904.94;5021378;28;45131;-83
2023/10/01 06:33:53;;;;;;;;;21.67;16.33;;;;;14.85;100.00;101900.31;5020314;28;44843;-82
2023/10/01 06:36:21;;;;;;;;;22.33;19.00;;;;;14.94;100.00;101902.69;5019266;28;45959;-82
2023/10/01 06:38:48;;;;;;;;;22.33;21.67;;;;;15.40;100.00;101905.69;5021072;28;46669;-81
2023/10/01 06:41:16;;;;;;;;;15.67;13.00;;;;;16.06;100.00;101893.69;5021602;28;45329;-85
2023/10/01 06:43:49;;;;;;;;;23.33;16.67;;;;;16.71;100.00;101882.56;5012828;28;45668;-83
2023/10/01 06:46:23;;;;;;;;;19.00;14.67;;;;;17.35;100.00;101871.47;5011135;28;46031;-83
2023/10/01 06:48:50;;;;;;;;;23.67;19.00;;;;;17.89;100.00;101854.28;5003414;28;45910;-83
2023/10/01 06:51:21;;;;;;;;;24.67;19.33;;;;;18.60;100.00;101872.22;5013350;28;45454;-83
2023/10/01 06:53:47;;;;;;;;;18.00;14.00;;;;;19.10;100.00;101889.69;5012295;28;45784;-84
2023/10/01 06:56:17;;;;;;;;;31.33;24.33;;;;;19.58;100.00;101889.53;5011658;28;45806;-84
2023/10/01 07:01:34;;;;;;;;;20.33;17.67;;;;;19.68;100.00;101882.50;5016728;28;45403;-83
2023/10/01 07:04:02;;;;;;;;;24.33;17.67;;;;;19.25;100.00;101884.53;5011605;28;45868;-82
2023/10/01 07:06:28;;;;;;;;;23.33;20.33;;;;;18.98;100.00;101889.66;5013124;28;45973;-83
2023/10/01 07:08:54;;;;;;;;;17.67;15.67;;;;;18.74;100.00;101888.72;5012499;28;46033;-84
2023/10/01 07:11:20;;;;;;;;;23.67;18.33;;;;;18.59;100.00;101891.91;5020375;28;45506;-84
2023/10/01 07:13:47;;;;;;;;;30.00;25.00;;;;;18.47;100.00;101887.16;5021640;28;45269;-83
2023/10/01 07:16:35;;;;;;;;;20.33;16.33;;;;;18.38;100.00;101896.03;5031002;28;45721;-84
2023/10/01 07:19:11;;;;;;;;;19.33;18.33;;;;;18.26;100.00;101888.47;5019915;28;47129;-83
2023/10/01 07:24:31;;;;;;;;;30.67;22.67;;;;;18.08;100.00;101869.06;5013776;28;45967;-84
2023/10/01 07:27:11;;;;;;;;;27.67;19.67;;;;;18.06;100.00;101877.63;5015371;28;45615;-80
2023/10/01 07:29:43;;;;;;;;;23.67;19.33;;;;;17.93;100.00;101866.66;5020669;28;46018;-81
2023/10/01 07:32:13;;;;;;;;;29.67;23.33;;;;;18.00;100.00;101895.19;5016790;28;45911;-80
2023/10/01 07:34:39;;;;;;;;;28.33;22.00;;;;;17.98;100.00;101898.19;5018881;28;45417;-80
2023/10/01 07:37:07;;;;;;;;;25.00;21.00;;;;;17.98;100.00;101894.59;5013938;28;46616;-80
2023/10/01 07:39:36;;;;;;;;;18.00;14.33;;;;;18.02;100.00;101898.56;5005126;28;46317;-80
2023/10/01 07:42:05;;;;;;;;;24.00;22.00;;;;;18.12;100.00;101904.44;5003712;28;45593;-78
2023/10/01 07:44:32;;;;;;;;;26.67;21.67;;;;;18.16;100.00;101900.13;5005978;28;45426;-78
2023/10/01 07:47:00;;;;;;;;;24.33;19.67;;;;;18.22;100.00;101898.38;5015484;28;45551;-79
2023/10/01 07:49:41;;;;;;;;;25.00;20.33;;;;;18.24;100.00;101890.63;5008623;28;46087;-80
2023/10/01 07:52:07;;;;;;;;;25.00;20.67;;;;;18.26;100.00;101888.47;5011304;28;45790;-80
2023/10/01 07:54:33;;;;;;;;;31.33;20.67;;;;;18.34;100.00;101890.09;5006183;28;45675;-79
2023/10/01 07:56:58;;;;;;;;;36.67;29.33;;;;;18.46;100.00;101898.50;5009753;28;45883;-80
2023/10/01 07:59:33;;;;;;;;;28.00;24.00;;;;;18.42;100.00;101898.09;5007456;28;46531;-79
2023/10/01 08:04:57;;;;;;;;;24.00;20.00;;;;;18.68;100.00;101902.47;5005938;28;46070;-80
2023/10/01 08:07:30;;;;;;;;;22.67;19.00;;;;;18.55;100.00;101871.22;5013593;28;45804;-80
2023/10/01 08:09:57;;;;;;;;;23.33;19.00;;;;;18.62;100.00;101883.09;5011912;28;45630;-80
2023/10/01 08:20:58;;;;;;;;;17.67;17.67;;;;;19.09;100.00;101915.81;5010045;28;45489;-82
2023/10/01 08:23:31;;;;;;;;;16.67;14.00;;;;;19.07;100.00;101918.81;5010838;28;45454;-81
2023/10/01 08:26:39;;;;;;;;;17.67;14.00;;;;;19.02;100.00;101899.22;5012180;28;45673;-81
2023/10/01 08:28:55;;;;;;;;;17.00;16.67;;;;;19.25;100.00;101917.06;5008275;28;45695;-84
2023/10/01 08:31:44;;;;;;;;;26.33;18.67;;;;;19.32;100.00;101912.25;5010863;28;47716;-84
2023/10/01 08:34:28;;;;;;;;;14.33;13.67;;;;;19.46;100.00;101922.06;5010899;28;45640;-79
2023/10/01 08:36:57;;;;;;;;;13.67;11.67;;;;;19.53;100.00;101920.00;5007514;28;45926;-80
2023/10/01 08:39:36;;;;;;;;;16.00;15.33;;;;;19.60;100.00;101917.13;5011689;28;45748;-81
2023/10/01 08:42:10;;;;;;;;;17.67;14.67;;;;;19.70;100.00;101922.94;5017431;28;45884;-81
2023/10/01 08:44:49;;;;;;;;;16.00;14.67;;;;;19.80;100.00;101921.50;5014471;28;45705;-82
2023/10/01 08:47:34;;;;;;;;;19.00;14.33;;;;;19.86;100.00;101920.53;5014783;28;45424;-81
2023/10/01 08:50:19;;;;;;;;;20.00;14.00;;;;;19.86;100.00;101906.63;5014558;28;45481;-82
2023/10/01 08:52:52;;;;;;;;;25.00;18.33;;;;;19.97;100.00;101911.34;5004560;28;47187;-83
2023/10/01 08:55:39;;;;;;;;;19.67;18.00;;;;;20.07;100.00;101913.50;5010596;28;45749;-82
2023/10/01 08:58:41;;;;;;;;;17.00;15.00;;;;;19.99;100.00;101886.88;5008814;28;45723;-83
2023/10/01 09:01:15;;;;;;;;;10.33;9.67;;;;;20.21;100.00;101906.59;5010668;28;45504;-82
2023/10/01 09:03:47;;;;;;;;;17.67;13.00;;;;;20.32;100.00;101909.59;5014737;28;45407;-84
2023/10/01 09:06:30;;;;;;;;;21.67;14.33;;;;;20.43;100.00;101911.47;5027354;28;45491;-82
2023/10/01 09:08:59;;;;;;;;;13.00;11.00;;;;;20.32;100.00;101902.06;5014102;28;45932;-83
2023/10/01 09:11:47;;;;;;;;;19.67;15.33;;;;;20.43;100.00;101906.78;5012467;28;45414;-84
2023/10/01 09:14:21;;;;;;;;;16.33;11.00;;;;;20.55;100.00;101903.94;5014775;28;46335;-85
2023/10/01 09:17:00;;;;;;;;;21.67;16.33;;;;;20.55;100.00;101903.94;5013123;28;45512;-83
2023/10/01 09:19:33;;;;;;;;;20.33;16.33;;;;;21.32;100.00;101897.03;5004173;28;45949;-81
2023/10/01 09:22:16;;;;;;;;;12.33;10.67;;;;;23.15;100.00;101916.84;5010910;28;45825;-84
2023/10/01 09:24:43;;;;;;;;;12.33;11.33;;;;;24.86;100.00;101909.22;5018003;28;47724;-83
2023/10/01 09:27:18;;;;;;;;;14.33;14.00;;;;;26.48;100.00;101901.19;5019783;28;45874;-82
2023/10/01 09:29:46;;;;;;;;;17.00;13.67;;;;;27.82;100.00;101904.72;5010822;28;46092;-83
2023/10/01 09:32:13;;;;;;;;;17.00;11.00;;;;;29.11;100.00;101910.75;5000003;28;46007;-83
2023/10/01 09:34:58;;;;;;;;;9.50;9.25;;;;;30.33;100.00;101903.16;5023291;28;47400;-81
2023/10/01 09:37:42;;;;;;;;;12.75;10.00;;;;;31.45;100.00;101890.38;5014354;28;45746;-83
2023/10/01 09:40:42;;;;;;;;;12.50;9.25;;;;;32.38;100.00;101895.19;5015315;28;45541;-80
2023/10/01 09:43:03;;;;;;;;;11.25;9.25;;;;;33.08;92.53;101885.91;5007812;28;46048;-79
2023/10/01 09:45:41;;;;;;;;;11.00;9.75;;;;;33.72;87.49;101875.78;5010837;28;45679;-80
2023/10/01 09:48:23;;;;;;;;;13.25;8.50;;;;;34.55;82.94;101897.16;5010722;28;45698;-79
2023/10/01 09:50:54;;;;;;;;;8.50;8.50;;;;;35.31;77.67;101898.09;5012151;28;45654;-78
2023/10/01 09:53:26;;;;;;;;;9.25;7.25;;;;;35.88;73.06;101884.22;5009944;28;47119;-81
2023/10/01 09:55:59;;;;;;;;;10.75;8.75;;;;;36.40;69.84;101874.13;5008745;28;45781;-81
2023/10/01 09:58:25;;;;;;;;;10.50;8.50;;;;;36.87;67.06;101873.53;5014286;28;45468;-81
2023/10/01 10:01:01;;;;;;;;;10.75;8.00;;;;;36.97;63.63;101854.22;5009581;28;45540;-80
2023/10/01 10:03:36;;;;;;;;;11.00;7.25;;;;;37.30;62.86;101879.69;5008061;28;45495;-80
2023/10/01 10:06:24;;;;;;;;;10.00;9.00;;;;;37.45;60.15;101876.03;5008417;28;46687;-81
2023/10/01 10:09:02;;;;;;;;;10.25;7.75;;;;;37.51;57.41;101850.00;5009519;28;45732;-81
2023/10/01 10:11:36;;;;;;;;;8.50;7.00;;;;;37.64;57.31;101843.00;5010184;28;45465;-82
2023/10/01 10:14:02;;;;;;;;;12.25;7.50;;;;;37.79;56.11;101862.22;5010882;28;45905;-83
2023/10/01 10:16:31;;;;;;;;;6.50;5.00;;;;;37.85;54.92;101874.25;5011628;28;46441;-84
2023/10/01 10:19:16;;;;;;;;;8.00;6.50;;;;;37.88;54.78;101852.63;5013601;28;45466;-83
2023/10/01 10:24:47;;;;;;;;;6.75;6.00;;;;;37.42;53.51;101847.31;5014138;28;45426;-83
2023/10/01 10:27:19;;;;;;;;;11.00;10.00;;;;;37.16;54.03;101859.22;5017288;28;45735;-83
2023/10/01 10:29:49;;;;;;;;;6.00;6.00;;;;;36.89;53.87;101856.84;5016312;28;47566;-82
2023/10/01 10:32:24;;;;;;;;;9.75;9.25;;;;;36.27;53.75;101839.00;5014985;28;44987;-82
2023/10/01 10:35:04;;;;;;;;;9.75;6.75;;;;;35.70;55.07;101853.00;5009472;28;46279;-83
2023/10/01 10:40:12;;;;;;;;;10.75;7.25;;;;;35.37;56.10;101847.34;5009547;28;45804;-82
2023/10/01 10:42:41;;;;;;;;;8.25;8.00;;;;;35.09;56.72;101852.81;5006247;28;45512;-82
2023/10/01 10:45:19;;;;;;;;;8.00;7.25;;;;;34.68;57.56;101849.63;5004036;28;45707;-82
2023/10/01 10:48:03;;;;;;;;;9.25;9.00;;;;;34.50;57.97;101843.25;5016962;28;47517;-82
2023/10/01 10:50:44;;;;;;;;;8.25;8.25;;;;;33.75;58.22;101843.81;5010167;28;45805;-81
2023/10/01 10:53:17;;;;;;;;;8.75;7.00;;;;;33.47;59.60;101846.25;5008207;28;45541;-82
2023/10/01 10:56:07;;;;;;;;;9.00;7.25;;;;;33.23;60.70;101834.25;5008612;28;45938;-82
2023/10/01 10:58:47;;;;;;;;;9.25;9.25;;;;;32.80;61.31;101829.44;5011064;28;45727;-84
2023/10/01 11:01:18;;;;;;;;;8.25;8.25;;;;;32.48;62.27;101837.25;5004964;28;45534;-85
2023/10/01 11:03:48;;;;;;;;;11.00;10.50;;;;;31.99;64.29;101822.25;5003279;28;45854;-82
2023/10/01 11:06:19;;;;;;;;;12.25;8.75;;;;;31.85;65.31;101834.56;5007070;28;45744;-81
2023/10/01 11:08:54;;;;;;;;;9.25;8.50;;;;;31.25;65.86;101818.06;5006360;28;48772;-81
2023/10/01 11:11:39;;;;;;;;;7.00;7.00;;;;;30.79;67.89;101820.91;5005744;28;45481;-81
2023/10/01 11:14:11;;;;;;;;;9.75;9.00;;;;;30.41;69.00;101809.88;5008133;28;45615;-82
2023/10/01 11:16:40;;;;;;;;;9.25;8.50;;;;;30.06;70.67;101822.81;5009697;28;46272;-80
2023/10/01 11:19:14;;;;;;;;;12.25;9.75;;;;;29.89;72.00;101823.44;5026151;28;47411;-80
2023/10/01 11:21:59;;;;;;;;;11.25;8.50;;;;;29.57;72.26;101828.84;5004875;28;45842;-80
2023/10/01 11:24:36;;;;;;;;;8.50;7.00;;;;;29.25;73.12;101812.75;5010331;28;45940;-81
2023/10/01 11:27:25;;;;;;;;;8.50;5.00;;;;;29.08;76.15;101806.84;5013296;28;45837;-81
2023/10/01 11:30:00;;;;;;;;;9.00;8.00;;;;;28.92;76.44;101815.56;5018210;28;48113;-82
2023/10/01 11:35:37;;;;;;;;;12.25;6.75;;;;;28.59;77.69;101807.00;5011879;28;45735;-81
2023/10/01 11:38:08;;;;;;;;;11.25;5.75;;;;;28.38;77.40;101800.00;5012884;28;45678;-81
2023/10/01 11:43:38;;;;;;;;;9.25;6.25;;;;;27.86;81.17;101800.69;5011670;28;45602;-77
2023/10/01 11:46:18;;;;;;;;;9.00;6.25;;;;;27.78;83.51;101809.78;5014309;28;45525;-80
2023/10/01 11:49:04;;;;;;;;;8.50;8.25;;;;;27.58;83.36;101802.41;5016443;28;45450;-80
2023/10/01 11:51:31;;;;;;;;;8.00;7.00;;;;;27.45;85.48;101792.69;5012750;28;45585;-81
2023/10/01 11:54:09;;;;;;;;;9.67;8.33;;;;;27.27;87.02;101783.81;5014374;28;45553;-83
2023/10/01 11:56:46;;;;;;;;;13.00;8.50;;;;;27.21;87.56;101793.44;5010863;28;45830;-82
2023/10/01 11:59:19;;;;;;;;;11.00;8.25;;;;;26.99;88.80;101784.66;5015119;28;45862;-81
2023/10/01 12:01:47;;;;;;;;;8.75;6.75;;;;;26.94;90.25;101796.78;5015504;28;46335;-83
2023/10/01 12:07:15;;;;;;;;;6.50;6.50;;;;;26.67;89.89;101794.47;5014253;28;46016;-81
2023/10/01 12:09:48;;;;;;;;;12.00;6.50;;;;;26.45;92.22;101772.38;5009386;28;45522;-81
2023/10/01 12:12:18;;;;;;;;;10.00;8.00;;;;;26.49;91.89;101787.53;5011628;28;45935;-80
2023/10/01 12:14:53;;;;;;;;;9.25;9.25;;;;;26.35;90.74;101785.38;5014241;28;45963;-79